sensor_id;sensor_type;location;lat;lon;timestamp;P1;durP1;ratioP1;P2;durP2;ratioP2
25946;SDS011;13745;51.470;9.894;2023-07-02T00:02:40;4.35;;;3.15;;
25946;SDS011;13745;51.470;9.894;2023-07-02T00:05:25;5.60;;;2.83;;
25946;SDS011;13745;51.470;9.894;2023-07-02T00:08:10;3.35;;;3.00;;
25946;SDS011;13745;51.470;9.894;2023-07-02T00:10:55;4.20;;;3.05;;
25946;SDS011;13745;51.470;9.894;2023-07-02T00:13:40;3.58;;;3.28;;
25946;SDS011;13745;51.470;9.894;2023-07-02T00:16:26;5.20;;;3.30;;
25946;SDS011;13745;51.470;9.894;2023-07-02T00:19:11;4.35;;;3.53;;
25946;SDS011;13745;51.470;9.894;2023-07-02T00:21:58;4.00;;;3.40;;
25946;SDS011;13745;51.470;9.894;2023-07-02T00:24:43;3.65;;;3.15;;
25946;SDS011;13745;51.470;9.894;2023-07-02T00:27:28;4.35;;;3.92;;
25946;SDS011;13745;51.470;9.894;2023-07-02T00:30:13;5.28;;;4.00;;
25946;SDS011;13745;51.470;9.894;2023-07-02T00:33:00;5.55;;;4.40;;
25946;SDS011;13745;51.470;9.894;2023-07-02T00:35:45;5.93;;;4.40;;
25946;SDS011;13745;51.470;9.894;2023-07-02T00:38:30;4.72;;;4.43;;
25946;SDS011;13745;51.470;9.894;2023-07-02T00:41:16;6.68;;;5.00;;
25946;SDS011;13745;51.470;9.894;2023-07-02T00:44:00;5.57;;;5.10;;
25946;SDS011;13745;51.470;9.894;2023-07-02T00:46:45;6.43;;;5.43;;
25946;SDS011;13745;51.470;9.894;2023-07-02T00:49:32;6.22;;;5.65;;
25946;SDS011;13745;51.470;9.894;2023-07-02T00:52:17;7.80;;;5.75;;
25946;SDS011;13745;51.470;9.894;2023-07-02T00:55:04;6.00;;;5.50;;
25946;SDS011;13745;51.470;9.894;2023-07-02T00:57:49;5.90;;;5.30;;
25946;SDS011;13745;51.470;9.894;2023-07-02T01:00:35;6.72;;;6.07;;
25946;SDS011;13745;51.470;9.894;2023-07-02T01:03:20;10.38;;;6.63;;
25946;SDS011;13745;51.470;9.894;2023-07-02T01:06:06;8.57;;;6.13;;
25946;SDS011;13745;51.470;9.894;2023-07-02T01:08:53;8.60;;;6.65;;
25946;SDS011;13745;51.470;9.894;2023-07-02T01:11:40;12.88;;;6.90;;
25946;SDS011;13745;51.470;9.894;2023-07-02T01:14:28;8.60;;;6.85;;
25946;SDS011;13745;51.470;9.894;2023-07-02T01:17:18;9.13;;;7.90;;
25946;SDS011;13745;51.470;9.894;2023-07-02T01:20:06;8.25;;;7.45;;
25946;SDS011;13745;51.470;9.894;2023-07-02T01:22:53;9.80;;;7.53;;
25946;SDS011;13745;51.470;9.894;2023-07-02T01:25:38;12.80;;;7.78;;
25946;SDS011;13745;51.470;9.894;2023-07-02T01:28:23;10.10;;;7.65;;
25946;SDS011;13745;51.470;9.894;2023-07-02T01:31:08;9.38;;;7.85;;
25946;SDS011;13745;51.470;9.894;2023-07-02T01:33:53;9.35;;;8.40;;
25946;SDS011;13745;51.470;9.894;2023-07-02T01:36:40;9.52;;;8.32;;
25946;SDS011;13745;51.470;9.894;2023-07-02T01:39:25;10.93;;;8.18;;
25946;SDS011;13745;51.470;9.894;2023-07-02T01:42:11;8.88;;;8.07;;
25946;SDS011;13745;51.470;9.894;2023-07-02T01:44:59;10.50;;;8.45;;
25946;SDS011;13745;51.470;9.894;2023-07-02T01:47:44;9.65;;;8.65;;
25946;SDS011;13745;51.470;9.894;2023-07-02T01:50:29;10.50;;;8.05;;
25946;SDS011;13745;51.470;9.894;2023-07-02T01:53:16;9.13;;;8.35;;
25946;SDS011;13745;51.470;9.894;2023-07-02T01:56:01;10.32;;;8.65;;
25946;SDS011;13745;51.470;9.894;2023-07-02T01:58:46;8.70;;;7.90;;
25946;SDS011;13745;51.470;9.894;2023-07-02T02:01:31;11.75;;;8.38;;
25946;SDS011;13745;51.470;9.894;2023-07-02T02:04:16;10.27;;;8.45;;
25946;SDS011;13745;51.470;9.894;2023-07-02T02:07:02;9.70;;;8.60;;
25946;SDS011;13745;51.470;9.894;2023-07-02T02:09:50;12.77;;;9.30;;
25946;SDS011;13745;51.470;9.894;2023-07-02T02:12:37;9.88;;;8.73;;
25946;SDS011;13745;51.470;9.894;2023-07-02T02:15:24;12.70;;;8.35;;
25946;SDS011;13745;51.470;9.894;2023-07-02T02:18:10;11.90;;;7.63;;
25946;SDS011;13745;51.470;9.894;2023-07-02T02:20:55;9.85;;;8.40;;
25946;SDS011;13745;51.470;9.894;2023-07-02T02:23:40;8.50;;;7.65;;
25946;SDS011;13745;51.470;9.894;2023-07-02T02:26:26;9.00;;;8.15;;
25946;SDS011;13745;51.470;9.894;2023-07-02T02:29:11;9.38;;;8.48;;
25946;SDS011;13745;51.470;9.894;2023-07-02T02:31:56;12.48;;;9.00;;
25946;SDS011;13745;51.470;9.894;2023-07-02T02:34:42;12.50;;;9.25;;
25946;SDS011;13745;51.470;9.894;2023-07-02T02:37:27;22.42;;;8.45;;
25946;SDS011;13745;51.470;9.894;2023-07-02T02:40:14;8.93;;;8.13;;
25946;SDS011;13745;51.470;9.894;2023-07-02T02:43:01;9.60;;;7.40;;
25946;SDS011;13745;51.470;9.894;2023-07-02T02:45:46;9.57;;;7.57;;
25946;SDS011;13745;51.470;9.894;2023-07-02T02:48:31;10.27;;;7.07;;
25946;SDS011;13745;51.470;9.894;2023-07-02T02:51:16;10.27;;;7.65;;
25946;SDS011;13745;51.470;9.894;2023-07-02T02:54:02;10.02;;;7.45;;
25946;SDS011;13745;51.470;9.894;2023-07-02T02:56:47;8.80;;;6.88;;
25946;SDS011;13745;51.470;9.894;2023-07-02T02:59:33;10.50;;;7.43;;
25946;SDS011;13745;51.470;9.894;2023-07-02T03:02:18;7.75;;;6.93;;
25946;SDS011;13745;51.470;9.894;2023-07-02T03:05:04;9.10;;;7.13;;
25946;SDS011;13745;51.470;9.894;2023-07-02T03:07:50;8.88;;;6.30;;
25946;SDS011;13745;51.470;9.894;2023-07-02T03:10:35;7.85;;;7.05;;
25946;SDS011;13745;51.470;9.894;2023-07-02T03:13:20;6.97;;;6.38;;
25946;SDS011;13745;51.470;9.894;2023-07-02T03:16:07;8.55;;;6.10;;
25946;SDS011;13745;51.470;9.894;2023-07-02T03:18:52;7.97;;;6.43;;
25946;SDS011;13745;51.470;9.894;2023-07-02T03:21:37;6.22;;;5.50;;
25946;SDS011;13745;51.470;9.894;2023-07-02T03:24:22;6.10;;;5.20;;
25946;SDS011;13745;51.470;9.894;2023-07-02T03:27:07;10.75;;;5.47;;
25946;SDS011;13745;51.470;9.894;2023-07-02T03:29:52;6.15;;;5.53;;
25946;SDS011;13745;51.470;9.894;2023-07-02T03:32:38;7.15;;;5.20;;
25946;SDS011;13745;51.470;9.894;2023-07-02T03:35:23;6.22;;;4.90;;
25946;SDS011;13745;51.470;9.894;2023-07-02T03:38:08;6.80;;;5.68;;
25946;SDS011;13745;51.470;9.894;2023-07-02T03:40:53;5.30;;;4.80;;
25946;SDS011;13745;51.470;9.894;2023-07-02T03:43:39;5.25;;;4.82;;
25946;SDS011;13745;51.470;9.894;2023-07-02T03:46:24;5.70;;;4.80;;
25946;SDS011;13745;51.470;9.894;2023-07-02T03:49:10;7.13;;;4.82;;
25946;SDS011;13745;51.470;9.894;2023-07-02T03:51:55;5.60;;;4.55;;
25946;SDS011;13745;51.470;9.894;2023-07-02T03:54:40;4.82;;;4.32;;
25946;SDS011;13745;51.470;9.894;2023-07-02T03:57:25;3.80;;;3.50;;
25946;SDS011;13745;51.470;9.894;2023-07-02T04:00:11;5.35;;;3.78;;
25946;SDS011;13745;51.470;9.894;2023-07-02T04:02:59;7.45;;;3.70;;
25946;SDS011;13745;51.470;9.894;2023-07-02T04:05:47;8.50;;;3.80;;
25946;SDS011;13745;51.470;9.894;2023-07-02T04:08:32;6.90;;;3.38;;
25946;SDS011;13745;51.470;9.894;2023-07-02T04:11:17;6.40;;;3.55;;
25946;SDS011;13745;51.470;9.894;2023-07-02T04:14:03;5.60;;;3.63;;
25946;SDS011;13745;51.470;9.894;2023-07-02T04:16:48;5.28;;;3.20;;
25946;SDS011;13745;51.470;9.894;2023-07-02T04:19:33;5.85;;;3.00;;
25946;SDS011;13745;51.470;9.894;2023-07-02T04:22:19;3.78;;;3.00;;
25946;SDS011;13745;51.470;9.894;2023-07-02T04:25:04;6.15;;;3.00;;
25946;SDS011;13745;51.470;9.894;2023-07-02T04:27:50;8.77;;;3.50;;
25946;SDS011;13745;51.470;9.894;2023-07-02T04:30:40;6.00;;;2.85;;
25946;SDS011;13745;51.470;9.894;2023-07-02T04:33:25;4.45;;;2.92;;
25946;SDS011;13745;51.470;9.894;2023-07-02T04:36:16;6.85;;;3.10;;
25946;SDS011;13745;51.470;9.894;2023-07-02T04:39:02;6.90;;;3.42;;
25946;SDS011;13745;51.470;9.894;2023-07-02T04:41:48;7.13;;;3.60;;
25946;SDS011;13745;51.470;9.894;2023-07-02T04:44:36;5.75;;;3.50;;
25946;SDS011;13745;51.470;9.894;2023-07-02T04:47:21;5.03;;;3.58;;
25946;SDS011;13745;51.470;9.894;2023-07-02T04:50:06;3.65;;;3.35;;
25946;SDS011;13745;51.470;9.894;2023-07-02T04:52:52;3.88;;;3.10;;
25946;SDS011;13745;51.470;9.894;2023-07-02T04:55:38;4.53;;;3.78;;
25946;SDS011;13745;51.470;9.894;2023-07-02T04:58:23;4.22;;;3.72;;
25946;SDS011;13745;51.470;9.894;2023-07-02T05:01:08;6.97;;;4.43;;
25946;SDS011;13745;51.470;9.894;2023-07-02T05:03:53;5.20;;;4.25;;
25946;SDS011;13745;51.470;9.894;2023-07-02T05:06:38;7.43;;;4.35;;
25946;SDS011;13745;51.470;9.894;2023-07-02T05:09:24;4.68;;;3.88;;
25946;SDS011;13745;51.470;9.894;2023-07-02T05:12:10;6.35;;;4.10;;
25946;SDS011;13745;51.470;9.894;2023-07-02T05:14:55;4.07;;;3.78;;
25946;SDS011;13745;51.470;9.894;2023-07-02T05:17:40;5.07;;;4.32;;
25946;SDS011;13745;51.470;9.894;2023-07-02T05:20:25;8.88;;;4.05;;
25946;SDS011;13745;51.470;9.894;2023-07-02T05:23:10;6.18;;;4.32;;
25946;SDS011;13745;51.470;9.894;2023-07-02T05:25:55;4.53;;;3.97;;
25946;SDS011;13745;51.470;9.894;2023-07-02T05:28:42;4.25;;;3.85;;
25946;SDS011;13745;51.470;9.894;2023-07-02T05:31:28;4.57;;;4.15;;
25946;SDS011;13745;51.470;9.894;2023-07-02T05:34:13;5.10;;;3.78;;
25946;SDS011;13745;51.470;9.894;2023-07-02T05:36:58;8.13;;;4.03;;
25946;SDS011;13745;51.470;9.894;2023-07-02T05:39:43;4.28;;;3.72;;
25946;SDS011;13745;51.470;9.894;2023-07-02T05:42:28;4.43;;;3.90;;
25946;SDS011;13745;51.470;9.894;2023-07-02T05:45:14;8.45;;;4.28;;
25946;SDS011;13745;51.470;9.894;2023-07-02T05:48:00;5.32;;;4.20;;
25946;SDS011;13745;51.470;9.894;2023-07-02T05:50:45;5.20;;;3.85;;
25946;SDS011;13745;51.470;9.894;2023-07-02T05:53:30;6.13;;;4.18;;
25946;SDS011;13745;51.470;9.894;2023-07-02T05:56:15;6.90;;;4.07;;
25946;SDS011;13745;51.470;9.894;2023-07-02T05:59:01;8.10;;;4.35;;
25946;SDS011;13745;51.470;9.894;2023-07-02T06:01:47;6.53;;;4.43;;
25946;SDS011;13745;51.470;9.894;2023-07-02T06:04:32;6.47;;;4.72;;
25946;SDS011;13745;51.470;9.894;2023-07-02T06:07:17;6.13;;;4.47;;
25946;SDS011;13745;51.470;9.894;2023-07-02T06:10:02;6.22;;;4.43;;
25946;SDS011;13745;51.470;9.894;2023-07-02T06:12:48;6.53;;;4.10;;
25946;SDS011;13745;51.470;9.894;2023-07-02T06:15:33;9.52;;;4.85;;
25946;SDS011;13745;51.470;9.894;2023-07-02T06:18:20;6.97;;;4.55;;
25946;SDS011;13745;51.470;9.894;2023-07-02T06:21:05;6.53;;;4.32;;
25946;SDS011;13745;51.470;9.894;2023-07-02T06:23:50;5.80;;;4.50;;
25946;SDS011;13745;51.470;9.894;2023-07-02T06:26:35;8.65;;;4.40;;
25946;SDS011;13745;51.470;9.894;2023-07-02T06:29:21;5.60;;;4.55;;
25946;SDS011;13745;51.470;9.894;2023-07-02T06:32:07;5.47;;;4.88;;
25946;SDS011;13745;51.470;9.894;2023-07-02T06:34:54;5.97;;;4.88;;
25946;SDS011;13745;51.470;9.894;2023-07-02T06:37:39;6.78;;;5.05;;
25946;SDS011;13745;51.470;9.894;2023-07-02T06:40:24;6.82;;;4.97;;
25946;SDS011;13745;51.470;9.894;2023-07-02T06:43:09;7.70;;;5.28;;
25946;SDS011;13745;51.470;9.894;2023-07-02T06:45:54;6.45;;;5.70;;
25946;SDS011;13745;51.470;9.894;2023-07-02T06:48:39;10.57;;;5.65;;
25946;SDS011;13745;51.470;9.894;2023-07-02T06:51:25;8.90;;;5.85;;
25946;SDS011;13745;51.470;9.894;2023-07-02T06:54:13;7.53;;;5.88;;
25946;SDS011;13745;51.470;9.894;2023-07-02T06:56:58;7.43;;;5.57;;
25946;SDS011;13745;51.470;9.894;2023-07-02T06:59:43;9.88;;;5.90;;
25946;SDS011;13745;51.470;9.894;2023-07-02T07:02:28;7.18;;;5.53;;
25946;SDS011;13745;51.470;9.894;2023-07-02T07:05:13;8.32;;;5.90;;
25946;SDS011;13745;51.470;9.894;2023-07-02T07:08:00;9.80;;;6.00;;
25946;SDS011;13745;51.470;9.894;2023-07-02T07:10:45;8.48;;;5.85;;
25946;SDS011;13745;51.470;9.894;2023-07-02T07:13:30;9.38;;;6.18;;
25946;SDS011;13745;51.470;9.894;2023-07-02T07:16:15;9.63;;;6.03;;
25946;SDS011;13745;51.470;9.894;2023-07-02T07:19:00;8.38;;;6.05;;
25946;SDS011;13745;51.470;9.894;2023-07-02T07:21:45;13.90;;;6.78;;
25946;SDS011;13745;51.470;9.894;2023-07-02T07:24:31;9.90;;;6.72;;
25946;SDS011;13745;51.470;9.894;2023-07-02T07:27:17;13.43;;;7.25;;
25946;SDS011;13745;51.470;9.894;2023-07-02T07:30:02;14.88;;;7.25;;
25946;SDS011;13745;51.470;9.894;2023-07-02T07:32:47;14.23;;;6.55;;
25946;SDS011;13745;51.470;9.894;2023-07-02T07:35:33;12.18;;;6.78;;
25946;SDS011;13745;51.470;9.894;2023-07-02T07:38:18;19.08;;;7.13;;
25946;SDS011;13745;51.470;9.894;2023-07-02T07:41:05;12.25;;;6.78;;
25946;SDS011;13745;51.470;9.894;2023-07-02T07:43:50;14.32;;;7.90;;
25946;SDS011;13745;51.470;9.894;2023-07-02T07:46:35;17.60;;;7.50;;
25946;SDS011;13745;51.470;9.894;2023-07-02T07:49:20;15.73;;;7.53;;
25946;SDS011;13745;51.470;9.894;2023-07-02T07:52:06;17.02;;;7.32;;
25946;SDS011;13745;51.470;9.894;2023-07-02T07:54:52;18.55;;;7.35;;
25946;SDS011;13745;51.470;9.894;2023-07-02T07:57:38;12.73;;;7.57;;
25946;SDS011;13745;51.470;9.894;2023-07-02T08:00:24;14.95;;;8.07;;
25946;SDS011;13745;51.470;9.894;2023-07-02T08:03:10;17.20;;;7.60;;
25946;SDS011;13745;51.470;9.894;2023-07-02T08:05:55;19.75;;;7.72;;
25946;SDS011;13745;51.470;9.894;2023-07-02T08:08:40;18.02;;;8.18;;
25946;SDS011;13745;51.470;9.894;2023-07-02T08:11:25;13.93;;;7.57;;
25946;SDS011;13745;51.470;9.894;2023-07-02T08:14:12;17.40;;;7.68;;
25946;SDS011;13745;51.470;9.894;2023-07-02T08:16:58;24.27;;;8.20;;
25946;SDS011;13745;51.470;9.894;2023-07-02T08:19:43;15.45;;;6.75;;
25946;SDS011;13745;51.470;9.894;2023-07-02T08:22:28;20.92;;;7.57;;
25946;SDS011;13745;51.470;9.894;2023-07-02T08:25:13;15.50;;;7.22;;
25946;SDS011;13745;51.470;9.894;2023-07-02T08:27:58;15.52;;;7.03;;
25946;SDS011;13745;51.470;9.894;2023-07-02T08:30:44;14.80;;;6.93;;
25946;SDS011;13745;51.470;9.894;2023-07-02T08:33:29;19.25;;;8.20;;
25946;SDS011;13745;51.470;9.894;2023-07-02T08:36:15;14.00;;;7.57;;
25946;SDS011;13745;51.470;9.894;2023-07-02T08:39:00;18.05;;;7.85;;
25946;SDS011;13745;51.470;9.894;2023-07-02T08:41:45;18.48;;;7.50;;
25946;SDS011;13745;51.470;9.894;2023-07-02T08:44:30;20.05;;;6.78;;
25946;SDS011;13745;51.470;9.894;2023-07-02T08:47:17;15.60;;;7.38;;
25946;SDS011;13745;51.470;9.894;2023-07-02T08:50:03;22.80;;;7.70;;
25946;SDS011;13745;51.470;9.894;2023-07-02T08:52:48;22.80;;;8.32;;
25946;SDS011;13745;51.470;9.894;2023-07-02T08:55:34;12.40;;;6.93;;
25946;SDS011;13745;51.470;9.894;2023-07-02T08:58:19;20.30;;;8.45;;
25946;SDS011;13745;51.470;9.894;2023-07-02T09:01:04;18.75;;;8.55;;
25946;SDS011;13745;51.470;9.894;2023-07-02T09:03:52;15.25;;;8.05;;
25946;SDS011;13745;51.470;9.894;2023-07-02T09:06:43;15.55;;;7.07;;
25946;SDS011;13745;51.470;9.894;2023-07-02T09:09:29;16.23;;;8.32;;
25946;SDS011;13745;51.470;9.894;2023-07-02T09:12:27;15.25;;;8.15;;
25946;SDS011;13745;51.470;9.894;2023-07-02T09:15:13;15.25;;;8.00;;
25946;SDS011;13745;51.470;9.894;2023-07-02T09:17:59;17.85;;;7.68;;
25946;SDS011;13745;51.470;9.894;2023-07-02T09:20:46;13.77;;;7.35;;
25946;SDS011;13745;51.470;9.894;2023-07-02T09:23:33;13.82;;;8.63;;
25946;SDS011;13745;51.470;9.894;2023-07-02T09:26:20;15.43;;;8.27;;
25946;SDS011;13745;51.470;9.894;2023-07-02T09:29:05;14.70;;;8.30;;
25946;SDS011;13745;51.470;9.894;2023-07-02T09:31:50;16.80;;;8.27;;
25946;SDS011;13745;51.470;9.894;2023-07-02T09:34:37;16.52;;;8.57;;
25946;SDS011;13745;51.470;9.894;2023-07-02T09:37:25;16.48;;;8.68;;
25946;SDS011;13745;51.470;9.894;2023-07-02T09:40:11;16.13;;;8.93;;
25946;SDS011;13745;51.470;9.894;2023-07-02T09:42:57;20.40;;;9.10;;
25946;SDS011;13745;51.470;9.894;2023-07-02T09:45:43;21.38;;;9.68;;
25946;SDS011;13745;51.470;9.894;2023-07-02T09:48:29;19.05;;;9.68;;
25946;SDS011;13745;51.470;9.894;2023-07-02T09:51:19;22.35;;;9.73;;
25946;SDS011;13745;51.470;9.894;2023-07-02T09:54:06;18.70;;;9.07;;
25946;SDS011;13745;51.470;9.894;2023-07-02T09:56:51;19.05;;;10.25;;
25946;SDS011;13745;51.470;9.894;2023-07-02T09:59:37;18.20;;;9.27;;
25946;SDS011;13745;51.470;9.894;2023-07-02T10:02:23;18.20;;;9.73;;
25946;SDS011;13745;51.470;9.894;2023-07-02T10:05:08;16.40;;;9.43;;
25946;SDS011;13745;51.470;9.894;2023-07-02T10:07:53;21.02;;;9.88;;
25946;SDS011;13745;51.470;9.894;2023-07-02T10:10:41;21.88;;;9.65;;
25946;SDS011;13745;51.470;9.894;2023-07-02T10:13:26;16.40;;;9.45;;
25946;SDS011;13745;51.470;9.894;2023-07-02T10:16:12;14.63;;;9.30;;
25946;SDS011;13745;51.470;9.894;2023-07-02T10:19:07;22.08;;;9.60;;
25946;SDS011;13745;51.470;9.894;2023-07-02T10:22:00;17.27;;;9.20;;
25946;SDS011;13745;51.470;9.894;2023-07-02T10:24:53;20.05;;;8.70;;
25946;SDS011;13745;51.470;9.894;2023-07-02T10:27:42;18.75;;;8.93;;
25946;SDS011;13745;51.470;9.894;2023-07-02T10:30:30;16.58;;;8.40;;
25946;SDS011;13745;51.470;9.894;2023-07-02T10:33:17;19.95;;;9.20;;
25946;SDS011;13745;51.470;9.894;2023-07-02T10:36:03;16.15;;;8.35;;
25946;SDS011;13745;51.470;9.894;2023-07-02T10:38:48;19.88;;;8.93;;
25946;SDS011;13745;51.470;9.894;2023-07-02T10:41:34;18.08;;;8.25;;
25946;SDS011;13745;51.470;9.894;2023-07-02T10:44:20;16.42;;;8.57;;
25946;SDS011;13745;51.470;9.894;2023-07-02T10:47:05;16.73;;;7.95;;
25946;SDS011;13745;51.470;9.894;2023-07-02T10:49:50;15.60;;;8.50;;
25946;SDS011;13745;51.470;9.894;2023-07-02T10:52:36;13.82;;;7.90;;
25946;SDS011;13745;51.470;9.894;2023-07-02T10:55:22;16.48;;;8.35;;
25946;SDS011;13745;51.470;9.894;2023-07-02T10:58:09;17.88;;;10.10;;
25946;SDS011;13745;51.470;9.894;2023-07-02T11:00:56;22.23;;;11.90;;
25946;SDS011;13745;51.470;9.894;2023-07-02T11:03:43;18.45;;;10.25;;
25946;SDS011;13745;51.470;9.894;2023-07-02T11:06:29;19.70;;;9.40;;
25946;SDS011;13745;51.470;9.894;2023-07-02T11:09:15;17.25;;;9.23;;
25946;SDS011;13745;51.470;9.894;2023-07-02T11:12:02;16.55;;;8.70;;
25946;SDS011;13745;51.470;9.894;2023-07-02T11:14:47;19.88;;;9.52;;
25946;SDS011;13745;51.470;9.894;2023-07-02T11:17:34;16.20;;;9.50;;
25946;SDS011;13745;51.470;9.894;2023-07-02T11:20:19;15.38;;;8.00;;
25946;SDS011;13745;51.470;9.894;2023-07-02T11:23:04;20.55;;;9.43;;
25946;SDS011;13745;51.470;9.894;2023-07-02T11:25:56;20.65;;;9.18;;
25946;SDS011;13745;51.470;9.894;2023-07-02T11:28:49;21.92;;;9.20;;
25946;SDS011;13745;51.470;9.894;2023-07-02T11:31:35;18.55;;;9.15;;
25946;SDS011;13745;51.470;9.894;2023-07-02T11:34:22;18.88;;;8.95;;
25946;SDS011;13745;51.470;9.894;2023-07-02T11:37:07;21.73;;;9.13;;
25946;SDS011;13745;51.470;9.894;2023-07-02T11:39:52;18.55;;;8.90;;
25946;SDS011;13745;51.470;9.894;2023-07-02T11:42:37;16.98;;;9.57;;
25946;SDS011;13745;51.470;9.894;2023-07-02T11:45:22;13.60;;;8.95;;
25946;SDS011;13745;51.470;9.894;2023-07-02T11:48:07;17.77;;;9.30;;
25946;SDS011;13745;51.470;9.894;2023-07-02T11:50:53;19.27;;;9.57;;
25946;SDS011;13745;51.470;9.894;2023-07-02T11:53:39;20.35;;;9.93;;
25946;SDS011;13745;51.470;9.894;2023-07-02T11:56:24;19.33;;;9.27;;
25946;SDS011;13745;51.470;9.894;2023-07-02T11:59:09;21.85;;;9.88;;
25946;SDS011;13745;51.470;9.894;2023-07-02T12:01:54;20.60;;;10.30;;
25946;SDS011;13745;51.470;9.894;2023-07-02T12:04:39;20.35;;;10.05;;
25946;SDS011;13745;51.470;9.894;2023-07-02T12:07:25;19.98;;;10.18;;
25946;SDS011;13745;51.470;9.894;2023-07-02T12:10:10;17.80;;;9.13;;
25946;SDS011;13745;51.470;9.894;2023-07-02T12:12:55;18.65;;;9.18;;
25946;SDS011;13745;51.470;9.894;2023-07-02T12:15:40;18.20;;;9.30;;
25946;SDS011;13745;51.470;9.894;2023-07-02T12:18:26;17.13;;;9.80;;
25946;SDS011;13745;51.470;9.894;2023-07-02T12:21:11;21.05;;;10.30;;
25946;SDS011;13745;51.470;9.894;2023-07-02T12:23:57;20.13;;;9.68;;
25946;SDS011;13745;51.470;9.894;2023-07-02T12:26:43;22.35;;;9.80;;
25946;SDS011;13745;51.470;9.894;2023-07-02T12:29:27;22.48;;;10.18;;
25946;SDS011;13745;51.470;9.894;2023-07-02T12:32:12;20.85;;;9.95;;
25946;SDS011;13745;51.470;9.894;2023-07-02T12:34:57;18.70;;;9.82;;
25946;SDS011;13745;51.470;9.894;2023-07-02T12:37:43;19.00;;;9.95;;
25946;SDS011;13745;51.470;9.894;2023-07-02T12:40:31;21.98;;;9.73;;
25946;SDS011;13745;51.470;9.894;2023-07-02T12:43:16;19.77;;;10.30;;
25946;SDS011;13745;51.470;9.894;2023-07-02T12:46:01;17.17;;;9.07;;
25946;SDS011;13745;51.470;9.894;2023-07-02T12:48:46;19.42;;;9.27;;
25946;SDS011;13745;51.470;9.894;2023-07-02T12:51:31;17.70;;;9.40;;
25946;SDS011;13745;51.470;9.894;2023-07-02T12:54:16;21.92;;;9.35;;
25946;SDS011;13745;51.470;9.894;2023-07-02T12:57:02;18.52;;;9.63;;
25946;SDS011;13745;51.470;9.894;2023-07-02T12:59:47;19.20;;;9.70;;
25946;SDS011;13745;51.470;9.894;2023-07-02T13:02:32;19.85;;;10.10;;
25946;SDS011;13745;51.470;9.894;2023-07-02T13:05:17;20.73;;;9.32;;
25946;SDS011;13745;51.470;9.894;2023-07-02T13:08:03;23.38;;;10.35;;
25946;SDS011;13745;51.470;9.894;2023-07-02T13:10:49;24.98;;;10.45;;
25946;SDS011;13745;51.470;9.894;2023-07-02T13:13:35;23.10;;;10.10;;
25946;SDS011;13745;51.470;9.894;2023-07-02T13:16:21;22.92;;;9.57;;
25946;SDS011;13745;51.470;9.894;2023-07-02T13:19:08;19.73;;;9.18;;
25946;SDS011;13745;51.470;9.894;2023-07-02T13:21:53;22.15;;;10.35;;
25946;SDS011;13745;51.470;9.894;2023-07-02T13:24:38;16.52;;;9.25;;
25946;SDS011;13745;51.470;9.894;2023-07-02T13:27:24;17.88;;;8.55;;
25946;SDS011;13745;51.470;9.894;2023-07-02T13:30:10;19.60;;;9.63;;
25946;SDS011;13745;51.470;9.894;2023-07-02T13:32:56;18.77;;;9.70;;
25946;SDS011;13745;51.470;9.894;2023-07-02T13:35:40;20.55;;;10.23;;
25946;SDS011;13745;51.470;9.894;2023-07-02T13:38:27;22.48;;;9.82;;
25946;SDS011;13745;51.470;9.894;2023-07-02T13:41:12;20.17;;;9.98;;
25946;SDS011;13745;51.470;9.894;2023-07-02T13:43:57;25.38;;;10.27;;
25946;SDS011;13745;51.470;9.894;2023-07-02T13:46:44;20.15;;;9.63;;
25946;SDS011;13745;51.470;9.894;2023-07-02T13:49:30;19.58;;;9.48;;
25946;SDS011;13745;51.470;9.894;2023-07-02T13:52:16;21.58;;;10.40;;
25946;SDS011;13745;51.470;9.894;2023-07-02T13:55:01;19.85;;;9.40;;
25946;SDS011;13745;51.470;9.894;2023-07-02T13:57:47;19.17;;;9.60;;
25946;SDS011;13745;51.470;9.894;2023-07-02T14:00:33;21.63;;;9.48;;
25946;SDS011;13745;51.470;9.894;2023-07-02T14:03:18;22.92;;;10.32;;
25946;SDS011;13745;51.470;9.894;2023-07-02T14:06:03;20.30;;;10.27;;
25946;SDS011;13745;51.470;9.894;2023-07-02T14:08:48;21.88;;;10.48;;
25946;SDS011;13745;51.470;9.894;2023-07-02T14:11:34;22.73;;;10.73;;
25946;SDS011;13745;51.470;9.894;2023-07-02T14:14:20;18.30;;;9.70;;
25946;SDS011;13745;51.470;9.894;2023-07-02T14:17:07;24.38;;;10.75;;
25946;SDS011;13745;51.470;9.894;2023-07-02T14:19:52;25.00;;;10.68;;
25946;SDS011;13745;51.470;9.894;2023-07-02T14:22:37;21.17;;;10.05;;
25946;SDS011;13745;51.470;9.894;2023-07-02T14:25:22;19.95;;;9.65;;
25946;SDS011;13745;51.470;9.894;2023-07-02T14:28:07;23.52;;;10.30;;
25946;SDS011;13745;51.470;9.894;2023-07-02T14:30:55;19.00;;;10.02;;
25946;SDS011;13745;51.470;9.894;2023-07-02T14:33:43;24.35;;;10.70;;
25946;SDS011;13745;51.470;9.894;2023-07-02T14:36:28;20.10;;;10.52;;
25946;SDS011;13745;51.470;9.894;2023-07-02T14:39:13;21.65;;;10.93;;
25946;SDS011;13745;51.470;9.894;2023-07-02T14:41:58;25.33;;;11.52;;
25946;SDS011;13745;51.470;9.894;2023-07-02T14:44:44;19.30;;;9.50;;
25946;SDS011;13745;51.470;9.894;2023-07-02T14:47:28;22.02;;;10.75;;
25946;SDS011;13745;51.470;9.894;2023-07-02T14:50:15;22.98;;;11.18;;
25946;SDS011;13745;51.470;9.894;2023-07-02T14:53:00;24.98;;;11.07;;
25946;SDS011;13745;51.470;9.894;2023-07-02T14:55:45;21.23;;;10.55;;
25946;SDS011;13745;51.470;9.894;2023-07-02T14:58:31;18.73;;;9.57;;
25946;SDS011;13745;51.470;9.894;2023-07-02T15:01:16;29.80;;;10.82;;
25946;SDS011;13745;51.470;9.894;2023-07-02T15:04:02;19.42;;;9.32;;
25946;SDS011;13745;51.470;9.894;2023-07-02T15:06:48;22.05;;;11.43;;
25946;SDS011;13745;51.470;9.894;2023-07-02T15:09:33;22.63;;;10.18;;
25946;SDS011;13745;51.470;9.894;2023-07-02T15:12:19;24.52;;;10.60;;
25946;SDS011;13745;51.470;9.894;2023-07-02T15:15:04;21.70;;;10.32;;
25946;SDS011;13745;51.470;9.894;2023-07-02T15:17:49;28.48;;;11.40;;
25946;SDS011;13745;51.470;9.894;2023-07-02T15:20:34;24.63;;;11.50;;
25946;SDS011;13745;51.470;9.894;2023-07-02T15:23:21;21.75;;;10.90;;
25946;SDS011;13745;51.470;9.894;2023-07-02T15:26:06;21.08;;;11.15;;
25946;SDS011;13745;51.470;9.894;2023-07-02T15:28:51;24.20;;;11.38;;
25946;SDS011;13745;51.470;9.894;2023-07-02T15:31:36;23.33;;;10.52;;
25946;SDS011;13745;51.470;9.894;2023-07-02T15:34:25;22.75;;;10.60;;
25946;SDS011;13745;51.470;9.894;2023-07-02T15:37:10;22.02;;;10.27;;
25946;SDS011;13745;51.470;9.894;2023-07-02T15:39:57;25.25;;;11.88;;
25946;SDS011;13745;51.470;9.894;2023-07-02T15:42:42;17.55;;;10.10;;
25946;SDS011;13745;51.470;9.894;2023-07-02T15:45:27;27.40;;;11.40;;
25946;SDS011;13745;51.470;9.894;2023-07-02T15:48:12;19.13;;;10.20;;
25946;SDS011;13745;51.470;9.894;2023-07-02T15:50:57;22.55;;;10.20;;
25946;SDS011;13745;51.470;9.894;2023-07-02T15:53:42;23.00;;;11.27;;
25946;SDS011;13745;51.470;9.894;2023-07-02T15:56:28;21.20;;;10.48;;
25946;SDS011;13745;51.470;9.894;2023-07-02T15:59:15;21.48;;;10.85;;
25946;SDS011;13745;51.470;9.894;2023-07-02T16:02:01;19.75;;;10.48;;
25946;SDS011;13745;51.470;9.894;2023-07-02T16:04:46;23.48;;;10.93;;
25946;SDS011;13745;51.470;9.894;2023-07-02T16:07:32;21.17;;;10.90;;
25946;SDS011;13745;51.470;9.894;2023-07-02T16:10:18;20.70;;;10.63;;
25946;SDS011;13745;51.470;9.894;2023-07-02T16:13:04;20.83;;;9.45;;
25946;SDS011;13745;51.470;9.894;2023-07-02T16:15:50;17.00;;;10.10;;
25946;SDS011;13745;51.470;9.894;2023-07-02T16:18:35;23.48;;;9.23;;
25946;SDS011;13745;51.470;9.894;2023-07-02T16:21:20;16.58;;;9.02;;
25946;SDS011;13745;51.470;9.894;2023-07-02T16:24:08;28.67;;;9.02;;
25946;SDS011;13745;51.470;9.894;2023-07-02T16:26:54;15.55;;;8.73;;
25946;SDS011;13745;51.470;9.894;2023-07-02T16:29:41;17.35;;;8.70;;